Time;durP1;ratioP1;P1;durP2;ratioP2;P2;SDS_P1;SDS_P2;PMS_P1;PMS_P2;Temp;Humidity;BMP_temperature;BMP_pressure;BME280_temperature;BME280_humidity;BME280_pressure;Samples;Min_cycle;Max_cycle;Signal;HPM_P1;HPM_P2
2023/09/11 00:01:42;;;;;;;23.88;17.13;;;22.50;99.90;;;;;;5070385;28;20494;-65
2023/09/11 00:04:08;;;;;;;22.30;17.65;;;22.30;99.90;;;;;;5071064;28;20448;-63
2023/09/11 00:06:35;;;;;;;27.63;17.08;;;22.30;99.90;;;;;;5071279;28;20059;-63
2023/09/11 00:09:01;;;;;;;27.35;17.75;;;22.40;99.90;;;;;;5071551;28;20048;-63
2023/09/11 00:11:28;;;;;;;27.48;17.25;;;22.30;99.90;;;;;;5070319;28;20056;-63
2023/09/11 00:13:54;;;;;;;24.73;18.02;;;22.20;99.90;;;;;;5075037;28;20052;-63
2023/09/11 00:16:20;;;;;;;26.25;17.60;;;22.20;99.90;;;;;;5054979;28;20147;-63
2023/09/11 00:18:47;;;;;;;19.85;17.73;;;22.20;99.90;;;;;;5055020;28;20044;-62
2023/09/11 00:21:13;;;;;;;21.48;17.77;;;22.10;99.90;;;;;;5068939;28;20056;-63
2023/09/11 00:23:39;;;;;;;22.98;18.40;;;22.20;99.90;;;;;;5074784;28;20045;-63
2023/09/11 00:26:05;;;;;;;29.75;18.65;;;22.10;99.90;;;;;;5074319;28;20056;-63
2023/09/11 00:28:32;;;;;;;21.83;17.05;;;22.10;99.90;;;;;;5074845;28;20048;-63
2023/09/11 00:30:59;;;;;;;24.60;17.75;;;22.00;99.90;;;;;;5061187;28;20071;-63
2023/09/11 00:33:26;;;;;;;25.85;19.08;;;22.00;99.90;;;;;;5054632;28;20081;-63
2023/09/11 00:35:52;;;;;;;27.23;18.83;;;22.00;99.90;;;;;;5053963;28;20075;-62
2023/09/11 00:38:18;;;;;;;30.48;18.73;;;22.00;99.90;;;;;;5054815;28;20452;-62
2023/09/11 00:40:45;;;;;;;23.80;18.35;;;21.90;99.90;;;;;;5065449;28;20049;-62
2023/09/11 00:43:11;;;;;;;24.63;18.45;;;21.90;99.90;;;;;;5074102;28;20430;-62
2023/09/11 00:45:37;;;;;;;28.13;18.00;;;21.90;99.90;;;;;;5074203;28;20125;-63
2023/09/11 00:48:04;;;;;;;21.65;17.55;;;21.90;99.90;;;;;;5074491;28;20048;-63
2023/09/11 00:50:31;;;;;;;24.95;18.40;;;21.90;99.90;;;;;;5065741;28;20048;-62
2023/09/11 00:52:58;;;;;;;25.05;18.50;;;21.90;99.90;;;;;;5054013;28;20464;-63
2023/09/11 00:55:25;;;;;;;21.77;18.25;;;21.90;99.90;;;;;;5054399;28;20122;-63
2023/09/11 00:57:52;;;;;;;26.65;18.60;;;21.80;99.90;;;;;;5054268;28;20052;-63
2023/09/11 01:00:19;;;;;;;24.42;18.38;;;21.80;99.90;;;;;;5061404;28;20056;-62
2023/09/11 01:02:47;;;;;;;31.02;18.75;;;21.80;99.90;;;;;;5074083;28;20063;-63
2023/09/11 01:05:13;;;;;;;25.75;18.73;;;21.70;99.90;;;;;;5072764;28;20048;-62
2023/09/11 01:07:39;;;;;;;25.38;18.88;;;21.70;99.90;;;;;;5074395;28;20051;-63
2023/09/11 01:10:06;;;;;;;26.45;19.17;;;21.70;99.90;;;;;;5067088;28;20064;-63
2023/09/11 01:12:36;;;;;;;24.33;19.13;;;21.70;99.90;;;;;;5053806;28;20045;-63
2023/09/11 01:15:04;;;;;;;24.30;18.17;;;21.60;99.90;;;;;;5052162;28;20447;-63
2023/09/11 01:17:54;;;;;;;28.88;19.08;;;21.60;99.90;;;;;;5053667;28;20056;-63
2023/09/11 01:20:37;;;;;;;23.40;17.55;;;21.50;99.90;;;;;;5060977;28;20389;-62
2023/09/11 01:23:46;;;;;;;22.92;18.98;;;21.60;99.90;;;;;;5073538;28;20529;-63
2023/09/11 01:26:24;;;;;;;25.52;19.48;;;21.50;99.90;;;;;;5073521;28;20056;-63
2023/09/11 01:28:57;;;;;;;26.08;19.15;;;21.50;99.90;;;;;;5073403;28;20425;-63
2023/09/11 01:31:26;;;;;;;24.02;19.27;;;21.50;99.90;;;;;;5056892;28;20052;-63
2023/09/11 01:33:53;;;;;;;30.50;20.13;;;21.40;99.90;;;;;;5053341;28;20147;-64
2023/09/11 01:36:20;;;;;;;24.77;18.35;;;21.40;99.90;;;;;;5052567;28;20057;-63
2023/09/11 01:38:46;;;;;;;25.50;18.55;;;21.40;99.90;;;;;;5053174;28;20064;-63
2023/09/11 01:41:14;;;;;;;26.33;18.50;;;21.30;99.90;;;;;;5066353;28;20052;-63
2023/09/11 01:43:43;;;;;;;27.65;19.27;;;21.30;99.90;;;;;;5072609;28;20468;-63
2023/09/11 01:46:09;;;;;;;24.70;18.55;;;21.30;99.90;;;;;;5072794;28;20378;-63
2023/09/11 01:48:36;;;;;;;23.25;20.00;;;21.30;99.90;;;;;;5071737;28;20045;-63
2023/09/11 01:51:03;;;;;;;25.15;18.80;;;21.30;99.90;;;;;;5060176;28;20049;-63
2023/09/11 01:53:31;;;;;;;22.70;18.88;;;21.30;99.90;;;;;;5053309;28;20126;-63
2023/09/11 01:55:58;;;;;;;24.75;19.52;;;21.20;99.90;;;;;;5052503;28;20041;-63
2023/09/11 01:58:24;;;;;;;24.60;19.08;;;21.20;99.90;;;;;;5052755;28;20074;-63
2023/09/11 02:00:51;;;;;;;27.67;19.88;;;21.10;99.90;;;;;;5064410;28;20121;-63
2023/09/11 02:03:17;;;;;;;24.73;19.17;;;21.10;99.90;;;;;;5073223;28;20101;-63
2023/09/11 02:05:43;;;;;;;21.92;19.40;;;21.10;99.90;;;;;;5073369;28;20044;-63
2023/09/11 02:08:09;;;;;;;24.48;18.95;;;21.10;99.90;;;;;;5073481;28;20040;-63
2023/09/11 02:10:36;;;;;;;23.20;19.95;;;21.10;99.90;;;;;;5064115;28;20117;-63
2023/09/11 02:13:02;;;;;;;26.85;20.70;;;21.10;99.90;;;;;;5061188;28;20465;-63
2023/09/11 02:15:28;;;;;;;27.25;19.83;;;21.10;99.90;;;;;;5072071;28;20052;-63
2023/09/11 02:17:54;;;;;;;27.55;20.17;;;21.00;99.90;;;;;;5072330;28;20049;-63
2023/09/11 02:20:21;;;;;;;24.38;18.95;;;21.00;99.90;;;;;;5070732;28;20172;-63
2023/09/11 02:22:47;;;;;;;25.00;18.52;;;21.00;99.90;;;;;;5071779;28;20368;-63
2023/09/11 02:25:13;;;;;;;26.75;20.05;;;21.00;99.90;;;;;;5072397;28;20056;-63
2023/09/11 02:27:39;;;;;;;27.33;19.48;;;21.00;99.90;;;;;;5072940;28;20262;-63
2023/09/11 02:30:06;;;;;;;26.05;19.98;;;21.00;99.90;;;;;;5071841;28;20040;-63
2023/09/11 02:32:33;;;;;;;23.23;19.45;;;21.00;99.90;;;;;;5072466;28;20057;-63
2023/09/11 02:34:59;;;;;;;24.58;20.05;;;20.90;99.90;;;;;;5071646;28;20049;-64
2023/09/11 02:37:25;;;;;;;28.20;18.45;;;21.00;99.90;;;;;;5087766;28;20758;-64
2023/09/11 02:39:51;;;;;;;25.92;19.42;;;21.00;99.90;;;;;;5068701;28;20067;-64
2023/09/11 02:42:17;;;;;;;29.52;20.13;;;20.90;99.90;;;;;;5052372;28;20045;-63
2023/09/11 02:44:44;;;;;;;23.58;18.70;;;20.90;99.90;;;;;;5052036;28;20338;-63
2023/09/11 02:47:10;;;;;;;22.40;19.20;;;20.90;99.90;;;;;;5052089;28;20045;-63
2023/09/11 02:49:36;;;;;;;24.40;20.33;;;20.90;99.90;;;;;;5052778;28;20045;-64
2023/09/11 02:52:03;;;;;;;26.30;19.05;;;20.80;99.90;;;;;;5072097;28;20456;-63
2023/09/11 02:54:29;;;;;;;28.05;20.40;;;20.80;99.90;;;;;;5072948;28;20056;-63
2023/09/11 02:56:55;;;;;;;28.77;20.10;;;20.90;99.90;;;;;;5072051;28;20064;-63
2023/09/11 02:59:21;;;;;;;23.38;19.27;;;20.80;99.90;;;;;;5070807;28;20456;-63
2023/09/11 03:01:48;;;;;;;23.77;18.98;;;20.80;99.90;;;;;;5053450;28;20053;-63
2023/09/11 03:04:14;;;;;;;23.88;19.83;;;20.80;99.90;;;;;;5052110;28;20106;-63
2023/09/11 03:06:40;;;;;;;21.88;19.50;;;20.80;99.90;;;;;;5052811;28;20056;-65
2023/09/11 03:09:06;;;;;;;24.13;19.25;;;20.80;99.90;;;;;;5052370;28;20118;-64
2023/09/11 03:11:33;;;;;;;26.05;19.52;;;20.70;99.90;;;;;;5068519;28;20074;-64
2023/09/11 03:13:59;;;;;;;23.98;19.90;;;20.80;99.90;;;;;;5072155;28;20113;-64
2023/09/11 03:16:25;;;;;;;26.73;20.15;;;20.70;99.90;;;;;;5071684;28;20060;-64
2023/09/11 03:18:53;;;;;;;23.67;19.88;;;20.70;99.90;;;;;;5070664;28;20057;-64
2023/09/11 03:21:19;;;;;;;26.65;19.10;;;20.60;99.90;;;;;;5056970;28;20468;-64
2023/09/11 03:23:45;;;;;;;25.58;20.52;;;20.60;99.90;;;;;;5051826;28;20076;-64
2023/09/11 03:26:13;;;;;;;25.90;19.88;;;20.60;99.90;;;;;;5051049;28;20448;-65
2023/09/11 03:28:39;;;;;;;25.75;19.30;;;20.70;99.90;;;;;;5051723;28;20110;-64
2023/09/11 03:31:06;;;;;;;24.73;20.02;;;20.70;99.90;;;;;;5050526;28;20064;-65
2023/09/11 03:33:32;;;;;;;21.55;18.13;;;20.70;99.90;;;;;;5051858;28;20059;-64
2023/09/11 03:35:59;;;;;;;26.75;18.65;;;20.70;99.90;;;;;;5050750;28;20063;-64
2023/09/11 03:38:25;;;;;;;26.85;17.83;;;20.60;99.90;;;;;;5051746;28;20406;-63
2023/09/11 03:40:51;;;;;;;23.73;19.58;;;20.60;99.90;;;;;;5061859;28;20102;-64
2023/09/11 03:43:17;;;;;;;22.35;19.33;;;20.70;99.90;;;;;;5071489;28;20044;-64
2023/09/11 03:45:44;;;;;;;25.35;18.48;;;20.70;99.90;;;;;;5071375;28;20044;-64
2023/09/11 03:48:10;;;;;;;30.73;19.60;;;20.60;99.90;;;;;;5074376;28;20104;-64
2023/09/11 03:50:36;;;;;;;24.90;17.77;;;20.70;99.90;;;;;;5067396;28;20430;-64
2023/09/11 03:53:02;;;;;;;30.27;19.05;;;20.70;99.90;;;;;;5055741;28;20045;-64
2023/09/11 03:55:29;;;;;;;27.13;18.80;;;20.70;99.90;;;;;;5055049;28;20045;-64
2023/09/11 03:57:55;;;;;;;25.42;18.75;;;20.70;99.90;;;;;;5055137;28;20068;-64
2023/09/11 04:00:21;;;;;;;21.75;19.35;;;20.70;99.90;;;;;;5061150;28;20052;-64
2023/09/11 04:02:48;;;;;;;27.27;17.90;;;20.60;99.90;;;;;;5075152;28;20139;-64
2023/09/11 04:05:14;;;;;;;33.03;19.30;;;20.60;99.90;;;;;;5074449;28;20387;-64
2023/09/11 04:07:41;;;;;;;25.35;17.60;;;20.60;99.90;;;;;;5074190;28;20048;-64
2023/09/11 04:10:07;;;;;;;25.75;17.60;;;20.70;99.90;;;;;;5070435;28;20048;-64
2023/09/11 04:12:34;;;;;;;27.80;18.23;;;20.60;99.90;;;;;;5055353;28;20056;-64
2023/09/11 04:15:00;;;;;;;27.52;18.42;;;20.70;99.90;;;;;;5054917;28;20124;-64
2023/09/11 04:17:26;;;;;;;27.38;18.70;;;20.60;99.90;;;;;;5055200;28;20098;-64
2023/09/11 04:19:52;;;;;;;25.17;18.20;;;20.70;99.90;;;;;;5057034;28;20053;-64
2023/09/11 04:22:19;;;;;;;22.63;18.05;;;20.60;99.90;;;;;;5075172;28;20175;-64
2023/09/11 04:24:45;;;;;;;20.67;17.90;;;20.70;99.90;;;;;;5074781;28;20044;-64
2023/09/11 04:27:11;;;;;;;21.13;17.77;;;20.70;99.90;;;;;;5074974;28;20048;-64
2023/09/11 04:29:40;;;;;;;24.85;18.58;;;20.60;99.90;;;;;;5074260;28;20044;-64
2023/09/11 04:32:06;;;;;;;27.73;18.25;;;20.60;99.90;;;;;;5054743;28;20045;-64
2023/09/11 04:34:32;;;;;;;26.13;18.52;;;20.60;99.90;;;;;;5055016;28;20056;-64
2023/09/11 04:36:58;;;;;;;28.33;17.33;;;20.60;99.90;;;;;;5054009;28;20364;-65
2023/09/11 04:39:24;;;;;;;25.85;18.40;;;20.60;99.90;;;;;;5055378;28;20057;-64
2023/09/11 04:41:51;;;;;;;28.88;18.77;;;20.60;99.90;;;;;;5073071;28;20185;-64
2023/09/11 04:44:17;;;;;;;26.02;18.80;;;20.60;99.90;;;;;;5074344;28;20052;-64
2023/09/11 04:46:45;;;;;;;30.50;19.23;;;20.60;99.90;;;;;;5074065;28;20048;-64
2023/09/11 04:49:11;;;;;;;25.67;18.88;;;20.60;99.90;;;;;;5073968;28;20518;-64
2023/09/11 04:51:37;;;;;;;26.52;20.00;;;20.60;99.90;;;;;;5057759;28;20060;-64
2023/09/11 04:54:03;;;;;;;24.80;18.48;;;20.60;99.90;;;;;;5054730;28;20045;-63
2023/09/11 04:56:30;;;;;;;29.70;19.00;;;20.60;99.90;;;;;;5053468;28;20045;-63
2023/09/11 04:58:56;;;;;;;24.08;19.30;;;20.60;99.90;;;;;;5053948;28;20074;-64
2023/09/11 05:01:22;;;;;;;26.70;19.08;;;20.50;99.90;;;;;;5063863;28;20059;-64
2023/09/11 05:03:48;;;;;;;25.10;18.10;;;20.60;99.90;;;;;;5074170;28;20403;-63
2023/09/11 05:06:15;;;;;;;24.58;19.98;;;20.60;99.90;;;;;;5073417;28;20059;-64
2023/09/11 05:08:42;;;;;;;23.70;19.58;;;20.50;99.90;;;;;;5073195;28;20120;-64
2023/09/11 05:11:08;;;;;;;22.95;19.73;;;20.50;99.90;;;;;;5072178;28;20045;-64
2023/09/11 05:13:34;;;;;;;27.08;18.85;;;20.50;99.90;;;;;;5073083;28;20396;-64
2023/09/11 05:16:00;;;;;;;25.77;18.63;;;20.50;99.90;;;;;;5072913;28;20056;-63
2023/09/11 05:18:27;;;;;;;25.42;20.42;;;20.50;99.90;;;;;;5071408;28;20169;-63
2023/09/11 05:20:53;;;;;;;28.42;20.85;;;20.40;99.90;;;;;;5073346;28;20049;-63
2023/09/11 05:23:19;;;;;;;26.58;21.58;;;20.50;99.90;;;;;;5061067;28;20489;-64
2023/09/11 05:25:46;;;;;;;28.23;21.20;;;20.50;99.90;;;;;;5053300;28;20045;-65
2023/09/11 05:28:13;;;;;;;27.52;21.30;;;20.50;99.90;;;;;;5053403;28;20049;-64
2023/09/11 05:30:39;;;;;;;28.33;21.33;;;20.50;99.90;;;;;;5065926;28;20053;-65
2023/09/11 05:33:05;;;;;;;26.98;19.63;;;20.60;99.90;;;;;;5073612;28;20525;-66
2023/09/11 05:35:31;;;;;;;29.55;22.33;;;20.60;99.90;;;;;;5072598;28;20056;-64
2023/09/11 05:37:58;;;;;;;26.98;22.08;;;20.60;99.90;;;;;;5072597;28;20074;-65
2023/09/11 05:40:24;;;;;;;24.48;19.60;;;20.60;99.90;;;;;;5071363;28;20328;-64
2023/09/11 05:42:50;;;;;;;27.15;21.73;;;20.70;99.90;;;;;;5071836;28;20045;-64
2023/09/11 05:45:16;;;;;;;31.27;21.92;;;21.00;99.90;;;;;;5072089;28;20468;-64
2023/09/11 05:47:43;;;;;;;27.95;21.15;;;21.30;99.90;;;;;;5072234;28;20056;-64
2023/09/11 05:50:11;;;;;;;25.50;21.17;;;21.60;99.90;;;;;;5071884;28;20421;-63
2023/09/11 05:52:37;;;;;;;26.48;21.55;;;21.90;99.90;;;;;;5072712;28;20048;-64
2023/09/11 05:55:03;;;;;;;28.05;20.65;;;22.10;99.90;;;;;;5072033;28;20468;-65
2023/09/11 05:57:30;;;;;;;26.10;18.48;;;22.40;99.90;;;;;;5071684;28;20403;-65
2023/09/11 05:59:56;;;;;;;29.67;20.83;;;22.70;99.90;;;;;;5069355;28;20702;-64
2023/09/11 06:02:23;;;;;;;24.35;21.63;;;22.80;99.90;;;;;;5052993;28;20052;-64
2023/09/11 06:04:49;;;;;;;23.25;19.65;;;23.00;99.90;;;;;;5052081;28;20049;-65
2023/09/11 06:07:16;;;;;;;29.88;20.40;;;23.20;99.90;;;;;;5052115;28;20041;-65
2023/09/11 06:09:43;;;;;;;27.25;20.35;;;23.40;99.90;;;;;;5051466;28;20151;-64
2023/09/11 06:12:09;;;;;;;24.38;19.42;;;23.60;99.90;;;;;;5070147;28;20067;-64
2023/09/11 06:14:37;;;;;;;25.75;19.58;;;23.90;99.90;;;;;;5072503;28;20376;-66
2023/09/11 06:17:05;;;;;;;25.05;20.17;;;24.00;99.90;;;;;;5071500;28;20071;-66
2023/09/11 06:19:31;;;;;;;23.88;20.35;;;24.20;99.90;;;;;;5070473;28;20100;-65
2023/09/11 06:21:57;;;;;;;23.33;17.92;;;24.50;99.90;;;;;;5069804;28;20392;-65
2023/09/11 06:24:24;;;;;;;23.20;20.15;;;24.70;99.90;;;;;;5071966;28;20076;-65
2023/09/11 06:27:03;;;;;;;26.05;20.40;;;24.80;99.90;;;;;;5071163;28;20105;-66
2023/09/11 06:29:29;;;;;;;26.73;19.55;;;25.00;99.90;;;;;;5071620;28;20048;-66
2023/09/11 06:31:56;;;;;;;24.45;19.00;;;25.00;99.90;;;;;;5052208;28;20053;-66
2023/09/11 06:34:22;;;;;;;23.17;20.23;;;25.00;99.90;;;;;;5051950;28;20429;-63
2023/09/11 06:36:48;;;;;;;22.67;19.77;;;25.10;99.90;;;;;;5051242;28;20059;-63
2023/09/11 06:39:15;;;;;;;28.30;19.40;;;25.30;99.90;;;;;;5051966;28;20053;-62
2023/09/11 06:41:42;;;;;;;21.48;17.70;;;25.40;99.90;;;;;;5063635;28;20379;-65
2023/09/11 06:44:09;;;;;;;21.50;19.20;;;25.60;99.90;;;;;;5070953;28;20132;-63
2023/09/11 06:46:35;;;;;;;22.23;19.15;;;25.70;99.90;;;;;;5071002;28;20055;-64
2023/09/11 06:49:01;;;;;;;24.40;17.77;;;25.70;99.90;;;;;;5070654;28;20369;-63
2023/09/11 06:51:27;;;;;;;25.15;19.38;;;25.80;99.90;;;;;;5060302;28;20048;-66
2023/09/11 06:53:54;;;;;;;25.83;20.65;;;26.00;99.90;;;;;;5071111;28;20056;-63
2023/09/11 06:56:20;;;;;;;22.50;20.23;;;26.00;99.90;;;;;;5064866;28;20119;-64
2023/09/11 06:58:47;;;;;;;24.25;19.10;;;25.80;99.90;;;;;;5069996;28;20079;-66
2023/09/11 07:01:13;;;;;;;23.80;18.40;;;25.60;99.90;;;;;;5043556;28;20337;-63
2023/09/11 07:03:39;;;;;;;23.73;19.67;;;25.50;99.90;;;;;;5051424;28;20061;-64
2023/09/11 07:06:06;;;;;;;23.85;20.17;;;25.30;99.90;;;;;;5051894;28;20049;-65
2023/09/11 07:08:32;;;;;;;23.30;19.52;;;25.20;99.90;;;;;;5060265;28;20049;-64
2023/09/11 07:10:58;;;;;;;24.50;20.25;;;25.30;99.90;;;;;;5070480;28;20064;-65
2023/09/11 07:13:24;;;;;;;24.13;19.73;;;25.30;99.90;;;;;;5062971;28;20049;-64
2023/09/11 07:15:58;;;;;;;22.73;19.33;;;25.20;99.90;;;;;;5071199;28;20066;-65
2023/09/11 07:18:25;;;;;;;21.13;18.45;;;25.30;99.90;;;;;;5070440;28;20106;-64
2023/09/11 07:20:52;;;;;;;24.40;18.38;;;25.30;99.90;;;;;;5070266;28;20045;-64
2023/09/11 07:23:23;;;;;;;23.83;19.13;;;25.40;99.90;;;;;;5071555;28;20481;-64
2023/09/11 07:25:52;;;;;;;24.27;19.35;;;25.40;99.90;;;;;;5059863;28;20488;-64
2023/09/11 07:28:19;;;;;;;23.83;19.08;;;25.30;99.90;;;;;;5050333;28;20060;-64
2023/09/11 07:30:45;;;;;;;24.33;19.45;;;25.40;99.90;;;;;;5058588;28;20052;-64
2023/09/11 07:33:11;;;;;;;22.95;18.80;;;25.40;99.90;;;;;;5071034;28;20044;-64
2023/09/11 07:35:38;;;;;;;22.67;17.67;;;25.50;99.90;;;;;;5071030;28;20045;-64
2023/09/11 07:38:06;;;;;;;19.75;17.23;;;25.60;99.90;;;;;;5071152;28;20106;-64
2023/09/11 07:40:32;;;;;;;23.65;17.67;;;25.70;99.90;;;;;;5070643;28;20056;-64
2023/09/11 07:42:58;;;;;;;19.30;17.25;;;25.80;99.90;;;;;;5071157;28;20128;-63
2023/09/11 07:45:25;;;;;;;18.27;16.42;;;25.80;99.90;;;;;;5070751;28;20052;-64
2023/09/11 07:47:51;;;;;;;25.38;18.10;;;25.80;99.90;;;;;;5070751;28;20504;-64
2023/09/11 07:50:18;;;;;;;22.42;18.25;;;25.80;99.90;;;;;;5066973;28;20155;-65
2023/09/11 07:52:44;;;;;;;20.90;16.80;;;25.80;99.90;;;;;;5051313;28;20373;-63
2023/09/11 07:55:11;;;;;;;22.58;17.17;;;25.90;99.90;;;;;;5050976;28;20045;-64
2023/09/11 07:57:40;;;;;;;22.17;17.33;;;26.00;99.90;;;;;;5065903;28;20115;-65
2023/09/11 08:00:07;;;;;;;19.63;17.55;;;26.10;99.90;;;;;;5060802;28;20052;-64
2023/09/11 08:02:34;;;;;;;18.52;16.45;;;26.10;99.90;;;;;;5050882;28;20418;-64
2023/09/11 08:05:00;;;;;;;21.65;17.42;;;26.20;99.90;;;;;;5064363;28;20483;-64
2023/09/11 08:07:26;;;;;;;23.80;18.98;;;26.10;99.90;;;;;;5070299;28;20097;-64
2023/09/11 08:09:53;;;;;;;21.80;19.38;;;26.10;99.90;;;;;;5070034;28;20048;-64
2023/09/11 08:12:19;;;;;;;24.50;18.65;;;26.10;99.90;;;;;;5050593;28;20045;-64
2023/09/11 08:14:45;;;;;;;20.92;18.30;;;26.20;99.90;;;;;;5061042;28;20041;-64
2023/09/11 08:17:12;;;;;;;21.25;18.25;;;26.40;99.90;;;;;;5069919;28;20045;-63
2023/09/11 08:19:39;;;;;;;22.17;18.92;;;26.20;99.90;;;;;;5070336;28;20052;-64
2023/09/11 08:22:05;;;;;;;21.17;17.45;;;26.20;99.90;;;;;;5069846;28;20445;-64
2023/09/11 08:24:31;;;;;;;21.40;17.95;;;26.10;99.90;;;;;;5070846;28;20055;-64
2023/09/11 08:26:57;;;;;;;23.88;19.90;;;26.10;99.90;;;;;;5070813;28;20064;-63
2023/09/11 08:29:23;;;;;;;21.60;18.25;;;26.20;99.90;;;;;;5068877;28;20048;-64
2023/09/11 08:31:50;;;;;;;23.52;18.67;;;26.30;99.90;;;;;;5054043;28;20049;-64
2023/09/11 08:34:16;;;;;;;21.63;19.33;;;26.30;99.90;;;;;;5053454;28;20520;-65
2023/09/11 08:36:43;;;;;;;23.48;17.15;;;26.20;99.90;;;;;;5054014;28;20086;-64
2023/09/11 08:39:09;;;;;;;18.20;16.23;;;26.40;99.90;;;;;;5053886;28;20448;-63
2023/09/11 08:41:36;;;;;;;18.35;15.18;;;26.50;99.90;;;;;;5068531;28;20087;-65
2023/09/11 08:44:02;;;;;;;22.30;16.67;;;26.70;99.90;;;;;;5074392;28;20139;-65
2023/09/11 08:46:34;;;;;;;20.92;16.17;;;26.80;99.90;;;;;;5074073;28;20048;-65
2023/09/11 08:49:05;;;;;;;16.85;14.73;;;27.00;99.90;;;;;;5073945;28;20064;-64
2023/09/11 08:51:37;;;;;;;19.67;15.60;;;27.10;99.90;;;;;;5060485;28;20045;-64
2023/09/11 08:54:04;;;;;;;16.65;15.02;;;27.20;99.90;;;;;;5052753;28;20049;-65
2023/09/11 08:56:31;;;;;;;17.63;15.25;;;27.10;99.90;;;;;;5054146;28;20045;-66
2023/09/11 08:58:58;;;;;;;17.45;14.95;;;27.00;99.90;;;;;;5054375;28;20063;-65
2023/09/11 09:01:25;;;;;;;16.92;15.13;;;27.00;99.90;;;;;;5059896;28;20068;-65
2023/09/11 09:03:52;;;;;;;17.95;14.68;;;26.90;99.90;;;;;;5052253;28;20057;-64
2023/09/11 09:06:19;;;;;;;15.98;13.68;;;26.70;99.90;;;;;;5052916;28;20067;-65
2023/09/11 09:08:46;;;;;;;20.20;15.57;;;26.80;99.90;;;;;;5051903;28;20088;-64
2023/09/11 09:11:13;;;;;;;17.75;14.40;;;26.90;99.90;;;;;;5046330;28;20048;-65
2023/09/11 09:13:39;;;;;;;19.60;13.98;;;27.00;99.90;;;;;;5089466;28;20318;-65
2023/09/11 09:16:06;;;;;;;18.98;15.75;;;27.20;99.90;;;;;;5055885;28;20444;-65
2023/09/11 09:18:32;;;;;;;18.25;14.38;;;27.20;99.90;;;;;;5072345;28;20380;-64
2023/09/11 09:20:58;;;;;;;18.08;16.23;;;27.40;99.90;;;;;;5063199;28;20546;-65
2023/09/11 09:23:33;;;;;;;17.65;15.05;;;27.50;99.90;;;;;;5052363;28;20053;-65
2023/09/11 09:26:06;;;;;;;19.23;16.98;;;27.60;99.90;;;;;;5052344;28;20122;-65
2023/09/11 09:28:33;;;;;;;18.75;15.50;;;27.30;99.90;;;;;;5052920;28;20045;-64
2023/09/11 09:31:00;;;;;;;17.17;15.48;;;27.40;99.90;;;;;;5052460;28;20045;-64
2023/09/11 09:33:27;;;;;;;18.20;14.90;;;27.30;99.90;;;;;;5068201;28;20063;-65
2023/09/11 09:35:53;;;;;;;18.23;15.15;;;27.50;99.90;;;;;;5051306;28;20049;-65
2023/09/11 09:38:20;;;;;;;18.75;14.45;;;27.50;99.90;;;;;;5057976;28;20404;-65
2023/09/11 09:40:47;;;;;;;18.38;15.70;;;27.50;99.90;;;;;;5071078;28;20059;-66
2023/09/11 09:43:18;;;;;;;20.15;15.18;;;27.40;99.90;;;;;;5071743;28;20048;-65
2023/09/11 09:45:45;;;;;;;18.80;14.98;;;27.40;99.90;;;;;;5071298;28;20048;-64
2023/09/11 09:48:12;;;;;;;18.67;15.32;;;27.50;99.90;;;;;;5067075;28;20076;-66
2023/09/11 09:50:58;;;;;;;22.52;16.65;;;27.50;99.90;;;;;;5057432;28;20055;-67
2023/09/11 09:53:33;;;;;;;19.75;16.40;;;27.50;99.90;;;;;;5071291;28;20044;-64
2023/09/11 09:56:05;;;;;;;19.15;17.05;;;27.50;99.90;;;;;;5072008;28;20084;-64
2023/09/11 09:58:35;;;;;;;24.92;17.15;;;27.50;99.90;;;;;;5071980;28;20056;-65
2023/09/11 10:01:03;;;;;;;21.80;18.33;;;27.50;99.90;;;;;;5074250;28;20056;-66
2023/09/11 10:03:41;;;;;;;23.50;18.50;;;27.40;99.90;;;;;;5034616;28;20056;-65
2023/09/11 10:06:09;;;;;;;24.23;18.35;;;27.40;99.90;;;;;;5051903;28;20469;-65
2023/09/11 10:08:36;;;;;;;20.73;18.50;;;27.40;99.90;;;;;;5051745;28;20045;-65
2023/09/11 10:11:03;;;;;;;21.60;19.27;;;27.40;99.90;;;;;;5061210;28;20044;-64
2023/09/11 10:13:32;;;;;;;21.55;17.92;;;27.30;99.90;;;;;;5072331;28;20453;-63
2023/09/11 10:15:59;;;;;;;20.92;17.27;;;27.40;99.90;;;;;;5071290;28;20397;-65
2023/09/11 10:18:28;;;;;;;21.70;17.40;;;27.50;99.90;;;;;;5070472;28;20372;-63
2023/09/11 10:20:55;;;;;;;22.30;18.15;;;27.50;99.90;;;;;;5063252;28;20045;-64
2023/09/11 10:23:21;;;;;;;20.30;16.23;;;27.60;99.90;;;;;;5052050;28;20376;-64
2023/09/11 10:25:52;;;;;;;17.50;15.75;;;27.50;99.90;;;;;;5034552;28;20041;-65
2023/09/11 10:28:27;;;;;;;22.77;17.80;;;27.70;99.90;;;;;;5051328;28;20091;-64
2023/09/11 10:31:45;;;;;;;18.80;16.90;;;27.80;99.90;;;;;;5058341;28;20052;-64
2023/09/11 10:34:11;;;;;;;19.50;16.40;;;27.80;99.90;;;;;;5038104;28;20052;-64
2023/09/11 10:36:40;;;;;;;22.80;18.98;;;27.80;99.90;;;;;;5070682;28;20074;-64
2023/09/11 10:39:10;;;;;;;17.73;15.68;;;27.90;99.90;;;;;;5071203;28;20395;-64
2023/09/11 10:41:37;;;;;;;19.70;16.00;;;28.00;99.90;;;;;;5057953;28;20521;-64
2023/09/11 10:44:03;;;;;;;19.02;16.95;;;28.20;99.90;;;;;;5052053;28;20045;-64
2023/09/11 10:46:38;;;;;;;19.25;17.25;;;28.30;99.90;;;;;;5050794;28;20064;-64
2023/09/11 10:49:16;;;;;;;19.70;15.00;;;28.10;99.90;;;;;;5047730;28;20048;-65
2023/09/11 10:51:45;;;;;;;17.58;15.88;;;28.30;99.90;;;;;;5016422;28;20089;-63
2023/09/11 10:54:13;;;;;;;18.85;16.77;;;28.20;99.90;;;;;;4990816;28;20169;-64
2023/09/11 10:56:42;;;;;;;18.00;14.65;;;28.10;99.90;;;;;;5005444;28;20046;-64
2023/09/11 10:59:09;;;;;;;19.05;14.13;;;28.10;99.90;;;;;;5003244;28;20053;-64
2023/09/11 11:01:36;;;;;;;17.88;12.50;;;28.20;99.90;;;;;;4996986;28;20138;-66
2023/09/11 11:04:04;;;;;;;16.48;12.93;;;28.20;99.90;;;;;;4987011;28;20058;-65
2023/09/11 11:06:31;;;;;;;16.73;12.02;;;28.20;99.90;;;;;;4991094;28;20058;-66
2023/09/11 11:08:58;;;;;;;14.55;12.40;;;28.20;99.90;;;;;;4999858;28;20085;-65
2023/09/11 11:11:30;;;;;;;17.20;12.15;;;28.20;99.90;;;;;;5009345;28;20064;-65
2023/09/11 11:14:21;;;;;;;16.45;11.23;;;28.30;99.90;;;;;;4998012;28;20121;-69
2023/09/11 11:17:08;;;;;;;14.70;10.32;;;28.30;99.90;;;;;;4999657;28;20053;-64
2023/09/11 11:19:39;;;;;;;15.85;11.05;;;28.20;99.90;;;;;;4982392;28;20403;-65
2023/09/11 11:22:07;;;;;;;17.50;11.48;;;28.30;99.90;;;;;;4996120;28;20046;-66
2023/09/11 11:24:50;;;;;;;16.48;11.77;;;28.30;99.90;;;;;;4999536;28;20415;-64
2023/09/11 11:27:16;;;;;;;20.38;12.88;;;28.40;99.90;;;;;;5007113;28;20050;-67
2023/09/11 11:29:43;;;;;;;23.08;11.98;;;28.40;99.90;;;;;;5001115;28;20053;-62
2023/09/11 11:32:10;;;;;;;18.75;11.48;;;28.40;99.90;;;;;;5004421;28;20045;-62
2023/09/11 11:34:39;;;;;;;15.93;12.32;;;28.50;99.90;;;;;;4999630;28;20038;-64
2023/09/11 11:37:05;;;;;;;16.00;12.15;;;28.50;99.90;;;;;;4999204;28;20049;-67
2023/09/11 11:39:36;;;;;;;13.63;11.10;;;28.40;99.90;;;;;;5001005;28;20466;-64
2023/09/11 11:42:04;;;;;;;12.50;9.98;;;28.50;99.90;;;;;;5001640;28;20383;-64
2023/09/11 11:44:33;;;;;;;13.13;9.75;;;28.60;99.90;;;;;;5000768;28;20433;-64
2023/09/11 11:46:59;;;;;;;13.95;11.27;;;28.60;99.90;;;;;;5004375;28;20054;-64
2023/09/11 11:49:26;;;;;;;13.25;11.00;;;28.60;99.90;;;;;;4999884;28;20054;-64
2023/09/11 11:51:52;;;;;;;13.32;11.13;;;28.50;99.90;;;;;;4996030;28;20053;-64
2023/09/11 11:54:23;;;;;;;15.25;11.80;;;28.50;99.90;;;;;;5003994;28;20054;-67
2023/09/11 11:56:53;;;;;;;;;;;28.40;99.90;;;;;;4996435;28;20054;-66
2023/09/11 11:59:19;;;;;;;14.65;7.72;;;28.50;99.90;;;;;;5002115;28;19937;-64
2023/09/11 12:01:46;;;;;;;12.85;8.50;;;28.60;99.90;;;;;;5000096;28;20046;-64
2023/09/11 12:04:12;;;;;;;9.18;7.53;;;28.50;99.90;;;;;;5010652;28;20117;-64
2023/09/11 12:06:38;;;;;;;11.90;6.53;;;28.50;99.90;;;;;;5012135;28;20377;-64
2023/09/11 12:09:04;;;;;;;7.93;6.32;;;28.60;99.90;;;;;;5013103;28;20129;-65
2023/09/11 12:11:31;;;;;;;12.70;5.97;;;28.50;99.90;;;;;;5025991;28;20067;-64
2023/09/11 12:13:57;;;;;;;8.10;5.28;;;28.50;99.90;;;;;;5033912;28;20068;-65
2023/09/11 12:16:29;;;;;;;7.28;4.30;;;28.50;99.90;;;;;;5030545;28;20457;-64
2023/09/11 12:18:55;;;;;;;8.90;5.28;;;28.50;99.90;;;;;;5008008;28;20117;-64
2023/09/11 12:21:21;;;;;;;11.32;5.55;;;28.50;99.90;;;;;;5017454;28;20057;-66
2023/09/11 12:23:48;;;;;;;8.38;5.20;;;28.50;99.90;;;;;;5035952;28;20053;-63
2023/09/11 12:26:14;;;;;;;8.55;5.40;;;28.50;99.90;;;;;;5035505;28;20068;-63
2023/09/11 12:28:41;;;;;;;9.45;6.22;;;28.40;99.90;;;;;;5035102;28;20045;-63
2023/09/11 12:31:07;;;;;;;13.55;6.22;;;28.50;99.90;;;;;;5026825;28;20050;-63